LTAT/MLX METAR and TAF weather

Enter ICAO airport designator
Station Type Date Time Source
LTAT METAR 2020/01/22 17:50 UTC NOAA

LTAT 221750Z 13005KT CAVOK M00/M08 Q1020 NOSIG


Station Type Date Time Source
LTAT Decoded METAR 2020/01/22 17:50 UTC NOAA

Malatya / Erhac, Turkey (LTAT) 38-26N 038-05E 849M
Jan 22, 2020 - 12:50 PM EST / 2020.01.22 1750 UTC
Wind: from the SE (130 degrees) at 6 MPH (5 KT):0
Visibility: greater than 7 mile(s):0
Temperature: 32 F (0 C)
Windchill: 26 F (-3 C):1
Dew Point: 17 F (-8 C)
Relative Humidity: 54%
Pressure (altimeter): 30.12 in. Hg (1020 hPa)
ob: LTAT 221750Z 13005KT CAVOK M00/M08 Q1020 NOSIG
cycle: 18

Station Type Date Time Source
LTAT TAF 2020/01/22 18:03 UTC NOAA

TAF LTAT 221640Z 2218/2318 28008KT CAVOK
BECMG 2306/2308 FEW040 BKN100

Example: see airport list